PATK/TKA METAR and TAF weather

Enter ICAO airport designator
Station Type Date Time Source
PATK METAR 2022/06/26 07:53 UTC NOAA

PATK 260753Z AUTO 00000KT 10SM CLR 14/10 A3027 RMK AO2 SLP252 T01440100 TSNO


Station Type Date Time Source
PATK Decoded METAR 2022/06/26 07:53 UTC NOAA

TALKEETNA AIRPORT, AK, United States (PATK) 62-19N 150-06W 109M
Jun 26, 2022 - 03:53 AM EDT / 2022.06.26 0753 UTC
Wind: Calm:0
Visibility: 10 mile(s):0
Sky conditions: clear
Temperature: 57.9 F (14.4 C)
Dew Point: 50.0 F (10.0 C)
Relative Humidity: 74%
Pressure (altimeter): 30.27 in. Hg (1025 hPa)
ob: PATK 260753Z AUTO 00000KT 10SM CLR 14/10 A3027 RMK AO2 SLP252 T01440100 TSNO
cycle: 8

Station Type Date Time Source
PATK TAF 2022/06/26 06:36 UTC NOAA

TAF PATK 260535Z 2606/2706 21007KT P6SM SKC
FM261200 VRB03KT P6SM BKN030
FM261900 19005KT P6SM SKC

Example: see airport list